createdAt,value
2017-04-02T00:00:51.183Z,14.02
2017-04-02T00:01:51.146Z,14.80
2017-04-02T00:02:51.130Z,14.00
2017-04-02T00:03:51.142Z,13.97
2017-04-02T00:04:51.265Z,14.93
2017-04-02T00:05:51.219Z,14.55
2017-04-02T00:06:51.298Z,14.92
2017-04-02T00:07:51.301Z,15.23
2017-04-02T00:08:51.276Z,15.68
2017-04-02T00:09:51.373Z,14.77
2017-04-02T00:10:57.414Z,14.58
2017-04-02T00:11:57.524Z,15.07
2017-04-02T00:12:58.392Z,14.30
2017-04-02T00:13:58.354Z,13.73
2017-04-02T00:14:58.355Z,13.75
2017-04-02T00:15:58.329Z,15.23
2017-04-02T00:16:58.259Z,13.10
2017-04-02T00:17:58.379Z,13.98
2017-04-02T00:18:58.314Z,14.55
2017-04-02T00:19:58.383Z,13.37
2017-04-02T00:20:58.357Z,15.78
2017-04-02T00:21:58.578Z,15.38
2017-04-02T00:22:58.573Z,14.30
2017-04-02T00:23:58.591Z,15.03
2017-04-02T00:24:58.549Z,14.77
2017-04-02T00:25:59.320Z,14.90
2017-04-02T00:26:59.281Z,14.55
2017-04-02T00:27:59.201Z,15.73
2017-04-02T00:28:59.187Z,13.50
2017-04-02T00:29:59.177Z,14.92
2017-04-02T00:30:59.180Z,13.27
2017-04-02T00:31:59.924Z,13.48
2017-04-02T00:32:59.958Z,14.40
2017-04-02T00:33:59.946Z,14.80
2017-04-02T00:34:59.927Z,14.92
2017-04-02T00:35:59.926Z,14.18
2017-04-02T00:36:59.917Z,14.75
2017-04-02T00:37:59.883Z,14.73
2017-04-02T00:38:59.977Z,15.60
2017-04-02T00:40:00.658Z,14.87
2017-04-02T00:41:00.674Z,14.40
2017-04-02T00:42:00.669Z,15.20
2017-04-02T00:43:00.678Z,14.48
2017-04-02T00:44:07.219Z,15.57
2017-04-02T00:45:07.258Z,15.37
2017-04-02T00:46:07.318Z,15.68
2017-04-02T00:47:07.399Z,16.77
2017-04-02T00:48:08.080Z,16.38
2017-04-02T00:49:08.048Z,16.28
2017-04-02T00:50:08.034Z,16.55
2017-04-02T00:51:08.050Z,16.73
2017-04-02T00:52:08.222Z,17.88
2017-04-02T00:53:08.216Z,18.00
2017-04-02T00:54:08.230Z,17.77
2017-04-02T00:55:08.184Z,18.03
2017-04-02T00:56:08.154Z,18.05
2017-04-02T00:57:08.114Z,19.10
2017-04-02T00:58:08.092Z,17.12
2017-04-02T00:59:08.166Z,17.73
2017-04-02T01:00:09.330Z,18.10
2017-04-02T01:01:09.486Z,18.32
2017-04-02T01:02:09.519Z,18.40
2017-04-02T01:03:09.497Z,18.45
2017-04-02T01:04:09.511Z,18.20
2017-04-02T01:05:09.511Z,18.35
2017-04-02T01:06:09.648Z,19.40
2017-04-02T01:07:10.465Z,17.52
2017-04-02T01:08:11.119Z,21.15
2017-04-02T01:09:11.243Z,19.50
2017-04-02T01:10:11.239Z,19.93
2017-04-02T01:11:11.258Z,20.22
2017-04-02T01:12:11.215Z,20.62
2017-04-02T01:13:11.217Z,20.73
2017-04-02T01:14:11.288Z,20.17
2017-04-02T01:15:11.289Z,20.70
2017-04-02T01:16:11.270Z,20.65
2017-04-02T01:17:11.240Z,18.50
2017-04-02T01:18:11.221Z,20.57
2017-04-02T01:19:11.270Z,20.75
2017-04-02T01:20:11.284Z,21.30
2017-04-02T01:21:12.088Z,21.13
2017-04-02T01:22:12.058Z,20.72
2017-04-02T01:23:12.106Z,20.33
2017-04-02T01:24:12.124Z,21.28
2017-04-02T01:25:12.106Z,20.03
2017-04-02T01:26:12.116Z,20.68
2017-04-02T01:27:12.090Z,20.62
2017-04-02T01:28:12.145Z,20.18
2017-04-02T01:29:12.145Z,20.70
2017-04-02T01:30:12.166Z,20.73
2017-04-02T01:31:12.194Z,20.80
2017-04-02T01:32:12.154Z,22.43
2017-04-02T01:33:12.126Z,21.67
2017-04-02T01:34:12.092Z,20.00
2017-04-02T01:35:12.148Z,21.00
2017-04-02T01:36:12.196Z,20.22
2017-04-02T01:37:12.937Z,21.43
2017-04-02T01:38:13.629Z,20.15
2017-04-02T01:39:14.063Z,20.92
2017-04-02T01:40:14.058Z,21.30
2017-04-02T01:41:14.045Z,22.03
2017-04-02T01:42:14.022Z,20.60
2017-04-02T01:43:14.037Z,22.18
2017-04-02T01:44:14.024Z,19.12
2017-04-02T01:45:14.002Z,21.72
2017-04-02T01:46:13.998Z,19.58
2017-04-02T01:47:14.674Z,20.68
2017-04-02T01:48:14.708Z,21.50
2017-04-02T01:49:15.413Z,20.18
2017-04-02T01:50:19.563Z,21.12
2017-04-02T01:51:20.358Z,21.05
2017-04-02T01:52:20.353Z,20.20
2017-04-02T01:53:20.318Z,19.97
2017-04-02T01:54:20.312Z,22.65
2017-04-02T01:55:20.364Z,21.00
2017-04-02T01:56:20.338Z,21.95
2017-04-02T01:57:20.387Z,21.57
2017-04-02T01:58:20.360Z,22.52
2017-04-02T01:59:21.090Z,22.82
2017-04-02T02:00:21.084Z,21.30
2017-04-02T02:01:21.826Z,21.53
2017-04-02T02:02:21.899Z,20.62
2017-04-02T02:03:21.888Z,22.03
2017-04-02T02:04:21.893Z,21.65
2017-04-02T02:05:21.900Z,21.27
2017-04-02T02:06:21.891Z,21.25
2017-04-02T02:07:21.944Z,22.15
2017-04-02T02:08:21.937Z,21.88
2017-04-02T02:09:21.969Z,21.62
2017-04-02T02:10:21.940Z,22.63
2017-04-02T02:11:21.905Z,23.57
2017-04-02T02:12:21.879Z,21.75
2017-04-02T02:13:21.822Z,22.25
2017-04-02T02:14:21.806Z,22.38
2017-04-02T02:15:21.820Z,21.07
2017-04-02T02:16:21.849Z,22.23
2017-04-02T02:17:21.847Z,20.02
2017-04-02T02:18:28.334Z,22.92
2017-04-02T02:19:28.358Z,21.15
2017-04-02T02:20:28.345Z,21.58
2017-04-02T02:21:28.306Z,21.33
2017-04-02T02:22:28.306Z,22.38
2017-04-02T02:23:28.242Z,22.18
2017-04-02T02:24:28.214Z,22.30
2017-04-02T02:25:28.189Z,21.05
2017-04-02T02:26:28.161Z,22.13
2017-04-02T02:27:28.085Z,22.52
2017-04-02T02:28:28.043Z,22.42
2017-04-02T02:29:28.012Z,21.10
2017-04-02T02:30:27.988Z,22.47
2017-04-02T02:31:28.013Z,21.55
2017-04-02T02:32:27.992Z,22.43
2017-04-02T02:33:27.994Z,21.22
2017-04-02T02:34:27.998Z,22.88
2017-04-02T02:35:28.070Z,21.23
2017-04-02T02:36:28.064Z,21.17
2017-04-02T02:37:28.041Z,21.85
2017-04-02T02:38:27.981Z,22.22
2017-04-02T02:39:27.953Z,21.65
2017-04-02T02:40:27.919Z,21.43
2017-04-02T02:41:27.993Z,21.95
2017-04-02T02:42:27.946Z,22.58
2017-04-02T02:43:27.997Z,22.62
2017-04-02T02:44:27.961Z,22.47
2017-04-02T02:45:27.907Z,22.95
2017-04-02T02:46:27.938Z,22.07
2017-04-02T02:47:27.930Z,22.33
2017-04-02T02:48:27.918Z,23.12
2017-04-02T02:49:27.852Z,21.82
2017-04-02T02:50:27.850Z,23.58
2017-04-02T02:51:27.869Z,22.93
2017-04-02T02:52:27.834Z,24.55
2017-04-02T02:53:27.758Z,23.15
2017-04-02T02:54:27.698Z,23.25
2017-04-02T02:55:28.374Z,22.20
2017-04-02T02:56:28.392Z,21.83
2017-04-02T02:57:28.390Z,21.58
2017-04-02T02:58:28.338Z,20.37
2017-04-02T02:59:28.339Z,22.07
2017-04-02T03:00:28.337Z,20.23
2017-04-02T03:01:28.386Z,21.12
2017-04-02T03:02:28.351Z,20.37
2017-04-02T03:03:28.357Z,19.82
2017-04-02T03:04:28.282Z,21.28
2017-04-02T03:05:28.291Z,21.22
2017-04-02T03:06:28.358Z,19.60
2017-04-02T03:07:28.334Z,19.73
2017-04-02T03:08:28.329Z,21.03
2017-04-02T03:09:28.310Z,19.02
2017-04-02T03:10:28.249Z,19.97
2017-04-02T03:11:28.281Z,21.00
2017-04-02T03:12:28.241Z,20.43
2017-04-02T03:13:28.215Z,19.78
2017-04-02T03:14:28.169Z,20.20
2017-04-02T03:15:28.127Z,18.42
2017-04-02T03:16:28.059Z,21.48
2017-04-02T03:17:30.949Z,20.97
2017-04-02T03:18:30.910Z,19.45
2017-04-02T03:19:30.923Z,19.83
2017-04-02T03:20:31.617Z,19.55
2017-04-02T03:21:31.620Z,21.13
2017-04-02T03:22:31.659Z,18.60
2017-04-02T03:23:31.631Z,20.65
2017-04-02T03:24:31.618Z,19.77
2017-04-02T03:25:31.573Z,17.90
2017-04-02T03:26:31.550Z,21.20
2017-04-02T03:27:31.571Z,20.53
2017-04-02T03:28:31.565Z,18.83
2017-04-02T03:29:31.532Z,17.78
2017-04-02T03:30:31.500Z,19.28
2017-04-02T03:31:31.476Z,18.87
2017-04-02T03:32:31.445Z,18.70
2017-04-02T03:33:31.393Z,18.15
2017-04-02T03:34:31.352Z,18.28
2017-04-02T03:35:31.305Z,17.33
2017-04-02T03:36:31.238Z,17.10
2017-04-02T03:37:31.193Z,18.83
2017-04-02T03:38:31.172Z,16.82
2017-04-02T03:39:31.091Z,16.47
2017-04-02T03:40:31.064Z,17.43
2017-04-02T03:41:31.023Z,17.02
2017-04-02T03:42:30.990Z,17.45
2017-04-02T03:43:30.976Z,17.42
2017-04-02T03:44:31.721Z,17.98
2017-04-02T03:45:31.729Z,17.92
2017-04-02T03:46:31.730Z,17.28
2017-04-02T03:47:32.457Z,17.20
2017-04-02T03:48:32.465Z,17.12
2017-04-02T03:49:32.454Z,16.90
2017-04-02T03:50:32.422Z,16.87
2017-04-02T03:51:32.402Z,16.15
2017-04-02T03:52:32.417Z,16.10
2017-04-02T03:53:32.437Z,16.92
2017-04-02T03:54:32.425Z,16.05
2017-04-02T03:55:32.418Z,15.60
2017-04-02T03:56:32.390Z,16.53
2017-04-02T03:57:32.362Z,16.90
2017-04-02T03:58:32.347Z,16.50
2017-04-02T03:59:32.413Z,15.77
2017-04-02T04:00:32.403Z,16.10
2017-04-02T04:01:32.367Z,16.87
2017-04-02T04:02:32.405Z,16.48
2017-04-02T04:03:32.409Z,15.17
2017-04-02T04:04:32.435Z,16.32
2017-04-02T04:05:32.449Z,16.98
2017-04-02T04:06:32.414Z,15.53
2017-04-02T04:07:32.440Z,15.40
2017-04-02T04:08:32.413Z,15.65
2017-04-02T04:09:32.402Z,16.20
2017-04-02T04:10:35.402Z,16.40
2017-04-02T04:11:35.349Z,15.03
2017-04-02T04:12:35.318Z,14.78
2017-04-02T04:13:35.288Z,15.63
2017-04-02T04:14:35.341Z,14.83
2017-04-02T04:15:35.353Z,14.97
2017-04-02T04:16:38.760Z,17.17
2017-04-02T04:17:39.473Z,16.55
2017-04-02T04:18:39.446Z,15.15
2017-04-02T04:19:39.466Z,16.50
2017-04-02T04:20:39.457Z,14.63
2017-04-02T04:21:39.434Z,14.10
2017-04-02T04:22:39.416Z,14.92
2017-04-02T04:23:39.446Z,15.23
2017-04-02T04:24:39.448Z,17.12
2017-04-02T04:25:39.446Z,15.45
2017-04-02T04:26:39.433Z,17.92
2017-04-02T04:27:39.422Z,16.75
2017-04-02T04:28:39.418Z,16.75
2017-04-02T04:29:39.404Z,16.28
2017-04-02T04:30:39.409Z,15.87
2017-04-02T04:31:39.414Z,15.85
2017-04-02T04:32:39.386Z,15.80
2017-04-02T04:33:39.387Z,15.15
2017-04-02T04:34:39.372Z,18.57
2017-04-02T04:35:39.377Z,17.37
2017-04-02T04:36:39.361Z,16.28
2017-04-02T04:37:39.342Z,16.60
2017-04-02T04:38:39.365Z,16.60
2017-04-02T04:39:39.345Z,15.70
2017-04-02T04:40:39.345Z,16.25
2017-04-02T04:41:39.354Z,15.92
2017-04-02T04:42:40.121Z,16.57
2017-04-02T04:43:40.091Z,16.23
2017-04-02T04:44:40.874Z,16.58
2017-04-02T04:45:40.849Z,15.88
2017-04-02T04:46:40.853Z,17.68
2017-04-02T04:47:40.835Z,18.02
2017-04-02T04:48:40.865Z,17.30
2017-04-02T04:49:40.905Z,17.97
2017-04-02T04:50:40.931Z,17.82
2017-04-02T04:51:40.931Z,16.62
2017-04-02T04:52:40.888Z,16.83
2017-04-02T04:53:40.867Z,17.55
2017-04-02T04:54:40.811Z,17.27
2017-04-02T04:55:40.767Z,16.25
2017-04-02T04:56:40.749Z,18.03
2017-04-02T04:57:40.737Z,17.60
2017-04-02T04:58:40.694Z,16.68
2017-04-02T04:59:40.703Z,16.85
2017-04-02T05:00:40.654Z,17.92
2017-04-02T05:01:40.633Z,17.60
2017-04-02T05:02:40.623Z,17.67
2017-04-02T05:03:40.597Z,18.70
2017-04-02T05:04:40.573Z,17.15
2017-04-02T05:05:40.539Z,17.97
2017-04-02T05:06:40.489Z,18.15
2017-04-02T05:07:40.510Z,18.90
2017-04-02T05:08:40.487Z,16.60
2017-04-02T05:09:40.443Z,18.30
2017-04-02T05:10:40.405Z,18.48
2017-04-02T05:11:40.384Z,18.40
2017-04-02T05:12:40.382Z,18.18
2017-04-02T05:13:40.349Z,18.12
2017-04-02T05:14:41.107Z,19.22
2017-04-02T05:15:41.079Z,18.23
2017-04-02T05:16:41.055Z,18.60
2017-04-02T05:17:41.067Z,20.18
2017-04-02T05:18:41.013Z,19.60
2017-04-02T05:19:40.961Z,18.77
2017-04-02T05:20:40.926Z,20.32
2017-04-02T05:21:40.889Z,18.78
2017-04-02T05:22:40.890Z,19.90
2017-04-02T05:23:40.851Z,18.20
2017-04-02T05:24:40.892Z,19.15
2017-04-02T05:25:40.850Z,20.15
2017-04-02T05:26:40.857Z,18.52
2017-04-02T05:27:40.846Z,19.62
2017-04-02T05:28:40.817Z,20.38
2017-04-02T05:29:40.804Z,18.65
2017-04-02T05:30:40.789Z,19.98
2017-04-02T05:31:41.534Z,18.62
2017-04-02T05:32:41.558Z,17.63
2017-04-02T05:33:41.546Z,19.77
2017-04-02T05:34:41.524Z,19.35
2017-04-02T05:35:41.509Z,17.73
2017-04-02T05:36:41.521Z,19.90
2017-04-02T05:37:41.672Z,18.62
2017-04-02T05:38:41.630Z,18.70
2017-04-02T05:39:41.605Z,19.77
2017-04-02T05:40:41.592Z,20.63
2017-04-02T05:41:41.581Z,19.80
2017-04-02T05:42:41.576Z,20.83
2017-04-02T05:43:41.562Z,19.07
2017-04-02T05:44:41.537Z,20.67
2017-04-02T05:45:41.535Z,20.17
2017-04-02T05:46:42.241Z,20.27
2017-04-02T05:47:42.250Z,18.10
2017-04-02T05:48:42.234Z,19.25
2017-04-02T05:49:42.194Z,18.75
2017-04-02T05:50:42.174Z,19.28
2017-04-02T05:51:42.123Z,20.08
2017-04-02T05:52:42.073Z,19.10
2017-04-02T05:53:42.025Z,19.88
2017-04-02T05:54:41.977Z,20.67
2017-04-02T05:55:41.916Z,19.03
2017-04-02T05:56:41.878Z,20.78
2017-04-02T05:57:41.826Z,20.52
2017-04-02T05:58:41.823Z,18.93
2017-04-02T05:59:42.493Z,17.92
2017-04-02T06:00:42.517Z,19.18
2017-04-02T06:01:42.455Z,18.95
2017-04-02T06:02:43.150Z,19.22
2017-04-02T06:03:43.134Z,18.73
2017-04-02T06:04:43.097Z,20.30
2017-04-02T06:05:43.044Z,19.40
2017-04-02T06:06:42.982Z,19.13
2017-04-02T06:07:42.945Z,18.68
2017-04-02T06:08:42.962Z,17.82
2017-04-02T06:09:42.887Z,18.83
2017-04-02T06:10:42.861Z,19.32
2017-04-02T06:11:42.749Z,18.45
2017-04-02T06:12:42.701Z,18.22
2017-04-02T06:13:42.722Z,19.17
2017-04-02T06:14:42.663Z,18.97
2017-04-02T06:15:42.600Z,18.92
2017-04-02T06:16:42.578Z,18.97
2017-04-02T06:17:42.602Z,18.60
2017-04-02T06:18:42.657Z,19.37
2017-04-02T06:19:42.605Z,18.83
2017-04-02T06:20:42.585Z,18.50
2017-04-02T06:21:42.538Z,18.85
2017-04-02T06:22:42.561Z,19.23
2017-04-02T06:23:42.558Z,19.40
2017-04-02T06:24:42.529Z,18.22
2017-04-02T06:25:42.466Z,18.03
2017-04-02T06:26:42.396Z,19.00
2017-04-02T06:27:42.365Z,18.23
2017-04-02T06:28:42.327Z,18.78
2017-04-02T06:29:42.294Z,18.42
2017-04-02T06:30:42.242Z,19.40
2017-04-02T06:31:42.193Z,17.33
2017-04-02T06:32:42.152Z,19.72
2017-04-02T06:33:42.114Z,17.93
2017-04-02T06:34:42.068Z,18.78
2017-04-02T06:35:42.134Z,18.42
2017-04-02T06:36:42.134Z,18.30
2017-04-02T06:37:42.070Z,17.55
2017-04-02T06:38:41.997Z,18.30
2017-04-02T06:39:42.000Z,18.33
2017-04-02T06:40:41.962Z,17.47
2017-04-02T06:41:41.922Z,19.27
2017-04-02T06:42:41.903Z,18.35
2017-04-02T06:43:41.848Z,20.10
2017-04-02T06:44:41.789Z,19.20
2017-04-02T06:45:41.764Z,18.05
2017-04-02T06:46:41.694Z,20.27
2017-04-02T06:47:41.604Z,20.43
2017-04-02T06:48:41.533Z,20.50
2017-04-02T06:49:41.462Z,18.95
2017-04-02T06:50:41.443Z,20.62
2017-04-02T06:51:41.414Z,20.25
2017-04-02T06:52:41.350Z,20.12
2017-04-02T06:53:42.146Z,19.13
2017-04-02T06:54:42.089Z,20.83
2017-04-02T06:55:42.058Z,20.13
2017-04-02T06:56:42.002Z,23.38
2017-04-02T06:57:42.735Z,19.13
2017-04-02T06:58:43.429Z,22.45
2017-04-02T06:59:43.397Z,20.87
2017-04-02T07:00:43.325Z,19.25
2017-04-02T07:01:43.268Z,20.60
2017-04-02T07:02:43.945Z,19.52
2017-04-02T07:03:43.899Z,19.93
2017-04-02T07:04:43.843Z,21.00
2017-04-02T07:05:43.815Z,20.75
2017-04-02T07:06:43.770Z,21.05
2017-04-02T07:07:43.721Z,21.13
2017-04-02T07:08:44.394Z,20.63
2017-04-02T07:09:44.374Z,21.40
2017-04-02T07:10:44.600Z,20.85
2017-04-02T07:11:44.653Z,20.62
2017-04-02T07:12:44.590Z,22.23
2017-04-02T07:13:44.566Z,22.68
2017-04-02T07:14:44.554Z,20.98
2017-04-02T07:15:44.533Z,22.98
2017-04-02T07:16:44.553Z,19.82
2017-04-02T07:17:44.527Z,20.67
2017-04-02T07:18:44.461Z,21.97
2017-04-02T07:19:44.390Z,20.30
2017-04-02T07:20:44.370Z,21.45
2017-04-02T07:21:44.300Z,20.18
2017-04-02T07:22:44.273Z,20.33
2017-04-02T07:23:44.210Z,21.35
2017-04-02T07:24:44.133Z,20.50
2017-04-02T07:25:44.848Z,20.22
2017-04-02T07:26:44.781Z,20.38
2017-04-02T07:27:44.705Z,20.93
2017-04-02T07:28:44.683Z,22.12
2017-04-02T07:29:44.662Z,21.05
2017-04-02T07:30:44.594Z,19.52
2017-04-02T07:31:44.557Z,19.98
2017-04-02T07:32:44.506Z,20.28
2017-04-02T07:33:44.474Z,20.72
2017-04-02T07:34:44.424Z,21.97
2017-04-02T07:35:44.396Z,19.43
2017-04-02T07:36:44.406Z,20.25
2017-04-02T07:37:44.340Z,19.82
2017-04-02T07:38:44.286Z,19.98
2017-04-02T07:39:44.262Z,19.72
2017-04-02T07:40:44.286Z,19.83
2017-04-02T07:41:44.247Z,19.37
2017-04-02T07:42:44.313Z,20.28
2017-04-02T07:43:44.242Z,19.92
2017-04-02T07:44:44.214Z,19.80
2017-04-02T07:45:44.202Z,20.07
2017-04-02T07:46:44.154Z,20.47
2017-04-02T07:47:44.137Z,20.80
2017-04-02T07:48:44.101Z,21.22
2017-04-02T07:49:44.075Z,19.72
2017-04-02T07:50:43.988Z,20.47
2017-04-02T07:51:43.997Z,21.72
2017-04-02T07:52:43.961Z,21.38
2017-04-02T07:53:43.929Z,21.12
2017-04-02T07:54:43.893Z,20.55
2017-04-02T07:55:43.886Z,20.30
2017-04-02T07:56:43.899Z,21.43
2017-04-02T07:57:44.618Z,22.08
2017-04-02T07:58:44.589Z,21.13
2017-04-02T07:59:44.568Z,21.00
2017-04-02T08:00:44.533Z,20.85
2017-04-02T08:01:44.600Z,23.08
2017-04-02T08:02:44.580Z,20.60
2017-04-02T08:03:44.565Z,21.05
2017-04-02T08:04:44.537Z,20.17
2017-04-02T08:05:44.546Z,20.62
2017-04-02T08:06:44.543Z,22.63
2017-04-02T08:07:44.518Z,20.98
2017-04-02T08:08:44.642Z,21.17
2017-04-02T08:09:44.710Z,21.47
2017-04-02T08:10:44.729Z,20.75
2017-04-02T08:11:44.754Z,22.72
2017-04-02T08:12:44.750Z,21.57
2017-04-02T08:13:44.739Z,21.52
2017-04-02T08:14:44.759Z,21.95
2017-04-02T08:15:44.746Z,21.60
2017-04-02T08:16:44.765Z,20.60
2017-04-02T08:17:44.780Z,21.23
2017-04-02T08:18:44.798Z,21.55
2017-04-02T08:19:45.549Z,20.95
2017-04-02T08:20:45.535Z,22.45
2017-04-02T08:21:45.558Z,21.28
2017-04-02T08:22:45.577Z,21.45
2017-04-02T08:23:45.574Z,20.58
2017-04-02T08:24:45.580Z,21.88
2017-04-02T08:25:45.578Z,21.32
2017-04-02T08:26:45.594Z,21.78
2017-04-02T08:27:45.609Z,22.57
2017-04-02T08:28:45.697Z,22.53
2017-04-02T08:29:45.734Z,22.27
2017-04-02T08:30:45.746Z,20.83
2017-04-02T08:31:45.774Z,22.52
2017-04-02T08:32:45.760Z,20.95
2017-04-02T08:33:45.849Z,22.08
2017-04-02T08:34:45.820Z,22.67
2017-04-02T08:35:45.826Z,23.93
2017-04-02T08:36:45.884Z,25.28
2017-04-02T08:37:45.876Z,22.92
2017-04-02T08:38:45.901Z,22.75
2017-04-02T08:39:45.925Z,23.05
2017-04-02T08:40:45.934Z,24.23
2017-04-02T08:41:45.974Z,22.73
2017-04-02T08:42:45.969Z,23.65
2017-04-02T08:43:46.712Z,23.62
2017-04-02T08:44:46.696Z,23.18
2017-04-02T08:45:46.687Z,23.70
2017-04-02T08:46:46.754Z,23.85
2017-04-02T08:47:46.825Z,24.87
2017-04-02T08:48:46.822Z,24.88
2017-04-02T08:49:46.857Z,24.38
2017-04-02T08:50:46.862Z,25.78
2017-04-02T08:51:46.910Z,26.21
2017-04-02T08:52:46.890Z,25.95
2017-04-02T08:53:46.952Z,27.67
2017-04-02T08:54:46.965Z,26.15
2017-04-02T08:55:46.959Z,26.53
2017-04-02T08:56:46.978Z,26.82
2017-04-02T08:57:46.962Z,28.14
2017-04-02T08:58:46.981Z,28.11
2017-04-02T08:59:46.987Z,28.46
2017-04-02T09:00:46.974Z,27.74
2017-04-02T09:01:47.036Z,26.34
2017-04-02T09:02:47.034Z,27.03
2017-04-02T09:03:48.284Z,27.00
2017-04-02T09:04:48.263Z,27.10
2017-04-02T09:05:48.228Z,26.66
2017-04-02T09:06:48.257Z,27.41
2017-04-02T09:07:48.270Z,27.49
2017-04-02T09:08:48.287Z,26.79
2017-04-02T09:09:48.253Z,27.13
2017-04-02T09:10:53.331Z,28.64
2017-04-02T09:11:57.145Z,26.53
2017-04-02T09:12:57.170Z,28.75
2017-04-02T09:13:57.180Z,27.11
2017-04-02T09:14:57.240Z,27.03
2017-04-02T09:15:57.222Z,27.53
2017-04-02T09:16:57.230Z,27.66
2017-04-02T09:17:57.189Z,27.17
2017-04-02T09:18:57.162Z,26.91
2017-04-02T09:19:57.126Z,26.37
2017-04-02T09:20:57.116Z,25.57
2017-04-02T09:21:57.107Z,28.04
2017-04-02T09:22:57.091Z,26.26
2017-04-02T09:23:57.826Z,28.33
2017-04-02T09:24:57.857Z,28.51
2017-04-02T09:25:57.825Z,27.74
2017-04-02T09:26:57.862Z,29.44
2017-04-02T09:27:57.899Z,28.61
2017-04-02T09:28:57.878Z,28.97
2017-04-02T09:29:57.899Z,29.61
2017-04-02T09:30:57.879Z,30.19
2017-04-02T09:31:58.627Z,30.57
2017-04-02T09:32:58.642Z,28.69
2017-04-02T09:33:58.621Z,29.77
2017-04-02T09:34:58.584Z,29.03
2017-04-02T09:35:58.578Z,30.47
2017-04-02T09:36:58.599Z,29.09
2017-04-02T09:37:58.606Z,30.16
2017-04-02T09:38:58.633Z,29.40
2017-04-02T09:39:59.410Z,29.36
2017-04-02T09:40:59.379Z,30.90
2017-04-02T09:41:59.382Z,28.44
2017-04-02T09:42:59.414Z,28.31
2017-04-02T09:43:59.445Z,30.36
2017-04-02T09:44:59.436Z,29.94
2017-04-02T09:45:59.397Z,32.06
2017-04-02T09:47:00.126Z,32.44
2017-04-02T09:48:00.130Z,34.57
2017-04-02T09:49:00.152Z,33.83
2017-04-02T09:50:00.125Z,33.09
2017-04-02T09:51:00.170Z,32.37
2017-04-02T09:52:00.210Z,29.91
2017-04-02T09:53:00.230Z,29.51
2017-04-02T09:54:00.195Z,28.31
2017-04-02T09:55:00.250Z,29.63
2017-04-02T09:56:00.257Z,26.74
2017-04-02T09:57:00.252Z,22.66
2017-04-02T09:58:00.289Z,23.01
2017-04-02T09:59:00.270Z,25.07
2017-04-02T10:00:00.277Z,24.86
2017-04-02T10:01:00.245Z,25.81
2017-04-02T10:02:00.258Z,22.01
2017-04-02T10:03:00.351Z,20.81
2017-04-02T10:04:00.374Z,23.67
2017-04-02T10:05:00.366Z,23.46
2017-04-02T10:06:00.378Z,24.59
2017-04-02T10:07:00.379Z,24.63
2017-04-02T10:08:00.483Z,25.24
2017-04-02T10:09:00.495Z,25.40
2017-04-02T10:10:00.473Z,25.80
2017-04-02T10:11:00.495Z,26.75
2017-04-02T10:12:00.514Z,25.47
2017-04-02T10:13:00.595Z,25.46
2017-04-02T10:14:00.656Z,22.86
2017-04-02T10:15:00.636Z,21.86
2017-04-02T10:16:00.690Z,21.59
2017-04-02T10:17:00.713Z,17.57
2017-04-02T10:18:00.739Z,19.66
2017-04-02T10:19:00.732Z,19.70
2017-04-02T10:20:00.702Z,20.39
2017-04-02T10:21:00.715Z,19.14
2017-04-02T10:22:00.760Z,19.40
2017-04-02T10:23:01.551Z,20.51
2017-04-02T10:24:01.543Z,18.86
2017-04-02T10:25:01.635Z,17.70
2017-04-02T10:26:01.647Z,17.50
2017-04-02T10:27:01.658Z,19.94
2017-04-02T10:28:01.728Z,22.40
2017-04-02T10:29:01.831Z,21.44
2017-04-02T10:30:02.610Z,29.47
2017-04-02T10:31:02.659Z,22.81
2017-04-02T10:32:02.673Z,25.70
2017-04-02T10:33:02.785Z,24.34
2017-04-02T10:34:02.836Z,23.89
2017-04-02T10:35:02.897Z,18.47
2017-04-02T10:36:02.903Z,15.89
2017-04-02T10:37:02.909Z,14.77
2017-04-02T10:38:02.976Z,13.39
2017-04-02T10:39:03.086Z,14.37
2017-04-02T10:40:03.114Z,15.93
2017-04-02T10:41:03.137Z,15.91
2017-04-02T10:42:03.218Z,17.87
2017-04-02T10:43:03.261Z,18.49
2017-04-02T10:44:03.270Z,19.50
2017-04-02T10:45:03.305Z,19.79
2017-04-02T10:46:03.342Z,18.50
2017-04-02T10:47:03.344Z,17.57
2017-04-02T10:48:03.413Z,15.41
2017-04-02T10:49:03.484Z,17.37
2017-04-02T10:50:03.510Z,18.66
2017-04-02T10:51:03.573Z,17.94
2017-04-02T10:52:03.607Z,16.84
2017-04-02T10:53:03.604Z,15.89
2017-04-02T10:54:04.384Z,15.40
2017-04-02T10:55:04.380Z,15.84
2017-04-02T10:56:04.374Z,17.91
2017-04-02T10:57:05.080Z,19.03
2017-04-02T10:58:05.094Z,18.73
2017-04-02T10:59:05.061Z,17.84
2017-04-02T11:00:05.053Z,15.81
2017-04-02T11:01:05.045Z,16.57
2017-04-02T11:02:05.056Z,14.60
2017-04-02T11:03:05.038Z,13.43
2017-04-02T11:04:05.039Z,13.24
2017-04-02T11:05:05.749Z,11.57
2017-04-02T11:06:05.689Z,12.56
2017-04-02T11:07:05.696Z,13.89
2017-04-02T11:08:05.677Z,13.09
2017-04-02T11:09:05.714Z,13.73
2017-04-02T11:10:05.815Z,14.01
2017-04-02T11:11:08.860Z,12.92
2017-04-02T11:12:12.101Z,13.31
2017-04-02T11:13:13.175Z,12.84
2017-04-02T11:14:13.254Z,12.71
2017-04-02T11:15:13.257Z,11.73
2017-04-02T11:16:13.231Z,14.40
2017-04-02T11:17:14.233Z,12.50
2017-04-02T11:18:14.833Z,14.33
2017-04-02T11:19:14.837Z,14.81
2017-04-02T11:20:14.822Z,14.49
2017-04-02T11:21:14.762Z,13.47
2017-04-02T11:22:14.755Z,14.94
2017-04-02T11:23:14.692Z,14.04
2017-04-02T11:24:15.510Z,14.14
2017-04-02T11:25:15.439Z,13.89
2017-04-02T11:26:15.389Z,15.86
2017-04-02T11:27:15.339Z,17.51
2017-04-02T11:28:15.302Z,17.53
2017-04-02T11:29:15.289Z,15.57
2017-04-02T11:30:15.250Z,16.80
2017-04-02T11:31:15.956Z,17.11
2017-04-02T11:32:15.895Z,15.77
2017-04-02T11:33:15.857Z,13.01
2017-04-02T11:34:15.810Z,12.23
2017-04-02T11:35:15.839Z,11.30
2017-04-02T11:36:15.813Z,11.47
2017-04-02T11:37:15.766Z,10.03
2017-04-02T11:38:15.718Z,9.07
2017-04-02T11:39:15.784Z,9.21
2017-04-02T11:40:15.947Z,8.49
2017-04-02T11:41:15.912Z,11.47
2017-04-02T11:42:15.858Z,13.16
2017-04-02T11:43:15.808Z,15.20
2017-04-02T11:44:15.793Z,14.57
2017-04-02T11:45:15.854Z,13.03
2017-04-02T11:46:15.820Z,13.26
2017-04-02T11:47:15.779Z,12.41
2017-04-02T11:48:15.790Z,12.56
2017-04-02T11:49:15.796Z,11.64
2017-04-02T11:50:16.627Z,11.60
2017-04-02T11:51:16.738Z,11.71
2017-04-02T11:52:17.455Z,13.00
2017-04-02T11:53:17.621Z,12.64
2017-04-02T11:54:17.605Z,11.73
2017-04-02T11:55:17.638Z,11.97
2017-04-02T11:56:17.610Z,10.93
2017-04-02T11:57:17.594Z,8.89
2017-04-02T11:58:17.610Z,10.36
2017-04-02T11:59:18.806Z,10.84
2017-04-02T12:00:18.842Z,11.59
2017-04-02T12:01:18.776Z,9.09
2017-04-02T12:02:18.721Z,9.11
2017-04-02T12:03:18.674Z,7.23
2017-04-02T12:04:18.611Z,6.01
2017-04-02T12:05:18.596Z,6.83
2017-04-02T12:06:18.543Z,7.97
2017-04-02T12:07:18.502Z,8.80
2017-04-02T12:08:18.466Z,9.43
2017-04-02T12:09:18.429Z,10.33
2017-04-02T12:10:18.406Z,10.73
2017-04-02T12:11:18.459Z,9.56
2017-04-02T12:12:18.387Z,10.14
2017-04-02T12:13:18.341Z,11.00
2017-04-02T12:14:18.331Z,10.40
2017-04-02T12:15:18.298Z,11.97
2017-04-02T12:16:18.265Z,10.53
2017-04-02T12:17:18.243Z,11.21
2017-04-02T12:18:18.153Z,8.83
2017-04-02T12:19:18.122Z,8.73
2017-04-02T12:20:18.166Z,8.74
2017-04-02T12:21:18.188Z,8.74
2017-04-02T12:22:18.130Z,9.26
2017-04-02T12:23:18.109Z,8.86
2017-04-02T12:24:18.045Z,9.17
2017-04-02T12:25:18.091Z,6.43
2017-04-02T12:26:18.014Z,3.96
2017-04-02T12:27:17.957Z,4.31
2017-04-02T12:28:17.966Z,4.87
2017-04-02T12:29:18.578Z,5.79
2017-04-02T12:30:18.600Z,4.84
2017-04-02T12:31:18.542Z,5.71
2017-04-02T12:32:18.606Z,6.37
2017-04-02T12:33:18.565Z,4.96
2017-04-02T12:34:18.518Z,5.63
2017-04-02T12:35:18.458Z,5.81
2017-04-02T12:36:18.413Z,6.01
2017-04-02T12:37:18.341Z,5.57
2017-04-02T12:38:18.395Z,5.34
2017-04-02T12:39:18.377Z,5.34
2017-04-02T12:40:18.370Z,5.71
2017-04-02T12:41:19.239Z,5.81
2017-04-02T12:42:19.202Z,5.54
2017-04-02T12:43:19.142Z,5.41
2017-04-02T12:44:19.057Z,5.94
2017-04-02T12:45:19.498Z,5.44
2017-04-02T12:46:19.482Z,5.80
2017-04-02T12:47:19.453Z,6.23
2017-04-02T12:48:19.377Z,6.06
2017-04-02T12:49:19.298Z,7.14
2017-04-02T12:50:19.254Z,7.37
2017-04-02T12:51:19.250Z,6.43
2017-04-02T12:52:19.202Z,6.79
2017-04-02T12:53:19.118Z,5.76
2017-04-02T12:54:19.050Z,5.49
2017-04-02T12:55:18.969Z,5.27
2017-04-02T12:56:18.952Z,6.11